createdAt,value
2019-02-06T00:00:57.993Z,16.67
2019-02-06T00:03:27.099Z,12.80
2019-02-06T00:05:56.458Z,14.80
2019-02-06T00:08:25.564Z,14.30
2019-02-06T00:10:54.608Z,11.50
2019-02-06T00:13:23.687Z,13.73
2019-02-06T00:15:53.283Z,12.73
2019-02-06T00:18:22.399Z,13.37
2019-02-06T00:20:51.412Z,15.27
2019-02-06T00:23:20.412Z,15.37
2019-02-06T00:25:49.514Z,14.27
2019-02-06T00:28:18.553Z,13.33
2019-02-06T00:30:48.311Z,13.93
2019-02-06T00:33:17.406Z,12.77
2019-02-06T00:35:46.562Z,14.60
2019-02-06T00:38:15.649Z,16.90
2019-02-06T00:40:44.770Z,12.13
2019-02-06T00:43:13.912Z,15.77
2019-02-06T00:45:43.390Z,16.80
2019-02-06T00:48:12.515Z,12.57
2019-02-06T00:50:41.661Z,15.03
2019-02-06T00:53:10.748Z,14.67
2019-02-06T00:55:39.868Z,13.00
2019-02-06T00:58:08.888Z,18.50
2019-02-06T01:00:38.143Z,19.83
2019-02-06T01:03:07.236Z,15.10
2019-02-06T01:05:38.455Z,15.97
2019-02-06T01:08:07.141Z,14.27
2019-02-06T01:10:36.164Z,15.03
2019-02-06T01:13:05.187Z,16.60
2019-02-06T01:15:34.208Z,16.37
2019-02-06T01:18:05.540Z,15.43
2019-02-06T01:20:34.648Z,16.10
2019-02-06T01:23:03.740Z,15.03
2019-02-06T01:25:32.812Z,14.10
2019-02-06T01:28:01.771Z,13.77
2019-02-06T01:30:36.398Z,15.73
2019-02-06T01:33:05.586Z,14.10
2019-02-06T01:35:34.583Z,14.77
2019-02-06T01:38:03.782Z,16.30
2019-02-06T01:40:32.913Z,14.10
2019-02-06T01:43:01.988Z,15.07
2019-02-06T01:45:31.418Z,14.47
2019-02-06T01:48:00.688Z,14.73
2019-02-06T01:50:29.830Z,17.23
2019-02-06T01:52:58.882Z,13.20
2019-02-06T01:55:27.961Z,14.90
2019-02-06T01:57:57.073Z,13.60
2019-02-06T02:00:26.192Z,16.17
2019-02-06T02:02:55.424Z,14.33
2019-02-06T02:05:24.514Z,16.90
2019-02-06T02:07:53.809Z,15.20
2019-02-06T02:10:22.975Z,14.03
2019-02-06T02:12:51.899Z,14.23
2019-02-06T02:15:21.130Z,15.93
2019-02-06T02:17:50.261Z,18.53
2019-02-06T02:20:21.145Z,17.07
2019-02-06T02:22:52.993Z,14.97
2019-02-06T02:25:22.070Z,14.27
2019-02-06T02:27:51.133Z,14.03
2019-02-06T02:30:26.484Z,15.37
2019-02-06T02:32:55.550Z,15.03
2019-02-06T02:35:24.679Z,14.30
2019-02-06T02:37:53.773Z,16.03
2019-02-06T02:40:22.801Z,17.07
2019-02-06T02:42:51.867Z,15.87
2019-02-06T02:45:21.062Z,18.77
2019-02-06T02:47:50.202Z,17.37
2019-02-06T02:50:19.123Z,17.27
2019-02-06T02:52:48.151Z,14.93
2019-02-06T02:55:17.217Z,16.63
2019-02-06T02:57:46.372Z,14.87
2019-02-06T03:00:18.233Z,15.50
2019-02-06T03:02:56.456Z,14.40
2019-02-06T03:05:28.192Z,14.07
2019-02-06T03:07:57.262Z,15.63
2019-02-06T03:10:26.367Z,16.27
2019-02-06T03:12:55.507Z,11.80
2019-02-06T03:15:25.030Z,16.03
2019-02-06T03:17:54.202Z,13.37
2019-02-06T03:20:23.305Z,16.50
2019-02-06T03:22:52.476Z,14.93
2019-02-06T03:25:21.309Z,17.47
2019-02-06T03:27:50.434Z,13.03
2019-02-06T03:30:20.024Z,12.87
2019-02-06T03:32:49.233Z,13.83
2019-02-06T03:35:18.441Z,11.23
2019-02-06T03:37:47.572Z,16.03
2019-02-06T03:40:16.611Z,12.27
2019-02-06T03:42:45.693Z,14.83
2019-02-06T03:45:15.214Z,11.97
2019-02-06T03:47:44.511Z,11.87
2019-02-06T03:50:15.526Z,14.33
2019-02-06T03:52:44.549Z,15.63
2019-02-06T03:55:13.647Z,12.03
2019-02-06T03:57:42.756Z,12.50
2019-02-06T04:00:13.931Z,12.60
2019-02-06T04:02:42.993Z,13.00
2019-02-06T04:05:12.485Z,13.47
2019-02-06T04:07:41.585Z,11.43
2019-02-06T04:10:12.371Z,13.27
2019-02-06T04:12:41.509Z,13.73
2019-02-06T04:15:10.615Z,11.23
2019-02-06T04:17:58.812Z,12.00
2019-02-06T04:20:27.919Z,11.90
2019-02-06T04:22:57.029Z,14.27
2019-02-06T04:25:26.152Z,12.93
2019-02-06T04:27:57.621Z,12.23
2019-02-06T04:30:26.567Z,12.13
2019-02-06T04:32:58.515Z,13.20
2019-02-06T04:35:27.523Z,12.90
2019-02-06T04:37:56.680Z,13.37
2019-02-06T04:40:25.817Z,14.87
2019-02-06T04:42:54.901Z,14.03
2019-02-06T04:45:23.917Z,13.43
2019-02-06T04:47:52.947Z,15.37
2019-02-06T04:50:21.987Z,13.33
2019-02-06T04:52:50.960Z,16.67
2019-02-06T04:55:20.056Z,15.30
2019-02-06T04:57:49.410Z,16.57
2019-02-06T05:00:23.378Z,15.43
2019-02-06T05:02:52.451Z,18.20
2019-02-06T05:05:21.396Z,14.90
2019-02-06T05:07:50.411Z,16.93
2019-02-06T05:10:19.727Z,17.70
2019-02-06T05:12:48.905Z,19.20
2019-02-06T05:15:17.987Z,20.37
2019-02-06T05:17:47.095Z,22.43
2019-02-06T05:20:38.153Z,18.27
2019-02-06T05:23:08.267Z,18.30
2019-02-06T05:25:37.444Z,17.50
2019-02-06T05:28:07.393Z,17.80
2019-02-06T05:30:36.433Z,17.27
2019-02-06T05:33:05.688Z,19.03
2019-02-06T05:35:34.799Z,14.83
2019-02-06T05:38:03.859Z,22.43
2019-02-06T05:40:32.973Z,15.13
2019-02-06T05:43:02.131Z,15.87
2019-02-06T05:45:31.218Z,15.30
2019-02-06T05:48:00.241Z,17.63
2019-02-06T05:50:29.188Z,16.80
2019-02-06T05:52:58.350Z,18.77
2019-02-06T05:55:27.721Z,16.43
2019-02-06T05:57:59.654Z,15.07
2019-02-06T06:00:33.883Z,14.23
2019-02-06T06:03:03.158Z,14.93
2019-02-06T06:05:32.235Z,16.43
2019-02-06T06:08:01.274Z,15.00
2019-02-06T06:10:30.334Z,13.80
2019-02-06T06:12:59.276Z,13.43
2019-02-06T06:15:28.354Z,17.70
2019-02-06T06:17:57.383Z,13.97
2019-02-06T06:20:26.516Z,15.27
2019-02-06T06:22:55.564Z,12.77
2019-02-06T06:25:24.594Z,16.57
2019-02-06T06:27:53.676Z,15.93
2019-02-06T06:30:22.795Z,15.97
2019-02-06T06:32:51.894Z,15.40
2019-02-06T06:35:21.116Z,13.87
2019-02-06T06:37:58.449Z,14.23
2019-02-06T06:40:23.703Z,13.50
2019-02-06T06:42:52.783Z,15.03
2019-02-06T06:45:23.036Z,14.03
2019-02-06T06:47:52.104Z,15.97
2019-02-06T06:50:22.822Z,12.63
2019-02-06T06:52:51.966Z,14.83
2019-02-06T06:55:21.038Z,15.17
2019-02-06T06:58:09.327Z,13.77
2019-02-06T07:00:38.401Z,13.77
2019-02-06T07:03:07.571Z,12.57
2019-02-06T07:05:36.617Z,14.03
2019-02-06T07:08:10.025Z,18.70
2019-02-06T07:10:36.908Z,15.97
2019-02-06T07:13:06.074Z,13.70
2019-02-06T07:15:35.792Z,16.93
2019-02-06T07:18:05.054Z,16.33
2019-02-06T07:20:34.046Z,14.50
2019-02-06T07:23:03.434Z,15.17
2019-02-06T07:25:44.451Z,14.80
2019-02-06T07:28:13.689Z,14.37
2019-02-06T07:30:42.781Z,15.33
2019-02-06T07:33:11.969Z,14.33
2019-02-06T07:35:41.353Z,13.47
2019-02-06T07:38:22.352Z,15.40
2019-02-06T07:40:41.253Z,12.40
2019-02-06T07:43:10.315Z,13.50
2019-02-06T07:45:39.458Z,13.20
2019-02-06T07:48:08.775Z,15.60
2019-02-06T07:50:38.092Z,14.20
2019-02-06T07:53:07.186Z,15.03
2019-02-06T07:55:36.259Z,12.87
2019-02-06T07:58:05.339Z,14.27
2019-02-06T08:00:37.572Z,13.70
2019-02-06T08:03:06.610Z,13.63
2019-02-06T08:05:36.137Z,14.17
2019-02-06T08:08:05.145Z,15.53
2019-02-06T08:10:35.071Z,14.20
2019-02-06T08:13:04.700Z,11.90
2019-02-06T08:15:33.806Z,18.87
2019-02-06T08:18:02.957Z,14.23
2019-02-06T08:20:32.218Z,15.77
2019-02-06T08:23:01.074Z,13.90
2019-02-06T08:25:30.186Z,14.07
2019-02-06T08:27:59.193Z,14.83
2019-02-06T08:30:30.409Z,13.67
2019-02-06T08:32:59.458Z,15.67
2019-02-06T08:35:28.479Z,11.60
2019-02-06T08:37:57.508Z,15.03
2019-02-06T08:40:27.156Z,15.20
2019-02-06T08:42:56.168Z,17.23
2019-02-06T08:45:25.343Z,13.37
2019-02-06T08:47:54.355Z,13.63
2019-02-06T08:50:23.491Z,14.77
2019-02-06T08:52:52.491Z,14.43
2019-02-06T08:55:23.400Z,14.37
2019-02-06T08:57:52.489Z,17.07
2019-02-06T09:00:26.789Z,15.77
2019-02-06T09:02:55.953Z,19.70
2019-02-06T09:05:25.317Z,17.30
2019-02-06T09:07:54.470Z,18.53
2019-02-06T09:10:24.044Z,17.43
2019-02-06T09:12:53.895Z,16.87
2019-02-06T09:15:23.009Z,16.67
2019-02-06T09:17:52.050Z,16.10
2019-02-06T09:20:23.126Z,17.93
2019-02-06T09:22:52.250Z,21.27
2019-02-06T09:25:21.981Z,19.57
2019-02-06T09:27:50.995Z,17.00
2019-02-06T09:30:22.260Z,20.30
2019-02-06T09:32:51.462Z,18.37
2019-02-06T09:35:20.956Z,18.80
2019-02-06T09:37:50.101Z,17.80
2019-02-06T09:40:20.986Z,16.57
2019-02-06T09:42:50.120Z,17.23
2019-02-06T09:45:19.137Z,19.63
2019-02-06T09:47:48.732Z,16.70
2019-02-06T09:50:25.039Z,19.03
2019-02-06T09:52:54.034Z,18.73
2019-02-06T09:55:23.059Z,17.27
2019-02-06T09:57:52.445Z,18.23
2019-02-06T10:00:24.082Z,16.57
2019-02-06T10:02:53.176Z,17.87
2019-02-06T10:05:22.991Z,16.83
2019-02-06T10:07:52.134Z,15.43
2019-02-06T10:10:22.086Z,18.23
2019-02-06T10:12:51.101Z,17.60
2019-02-06T10:15:22.272Z,18.13
2019-02-06T10:17:51.403Z,18.37
2019-02-06T10:20:21.873Z,15.90
2019-02-06T10:22:50.985Z,15.03
2019-02-06T10:25:20.206Z,20.93
2019-02-06T10:27:49.221Z,20.60
2019-02-06T10:30:28.167Z,23.53
2019-02-06T10:32:57.587Z,16.63
2019-02-06T10:35:26.597Z,19.20
2019-02-06T10:37:55.627Z,13.97
2019-02-06T10:40:24.747Z,22.47
2019-02-06T10:42:53.980Z,18.13
2019-02-06T10:45:23.119Z,17.47
2019-02-06T10:47:52.265Z,16.83
2019-02-06T10:50:22.969Z,16.93
2019-02-06T10:52:52.126Z,16.50
2019-02-06T10:55:21.246Z,13.73
2019-02-06T10:57:50.266Z,17.20
2019-02-06T11:00:23.021Z,14.60
2019-02-06T11:02:52.534Z,13.93
2019-02-06T11:05:21.736Z,17.87
2019-02-06T11:07:50.807Z,14.37
2019-02-06T11:10:20.285Z,16.13
2019-02-06T11:12:49.367Z,15.70
2019-02-06T11:15:18.382Z,13.90
2019-02-06T11:17:47.501Z,13.37
2019-02-06T11:20:17.959Z,17.90
2019-02-06T11:22:47.048Z,16.10
2019-02-06T11:25:16.191Z,18.27
2019-02-06T11:27:45.094Z,12.83
2019-02-06T11:30:17.195Z,17.93
2019-02-06T11:32:46.258Z,13.93
2019-02-06T11:35:15.375Z,14.50
2019-02-06T11:38:03.615Z,14.30
2019-02-06T11:40:32.565Z,16.83
2019-02-06T11:43:01.593Z,17.50
2019-02-06T11:45:32.177Z,15.63
2019-02-06T11:48:01.269Z,17.67
2019-02-06T11:50:41.203Z,17.20
2019-02-06T11:53:28.838Z,17.30
2019-02-06T11:55:58.374Z,16.73
2019-02-06T11:58:27.586Z,18.30
2019-02-06T12:01:15.383Z,20.10
2019-02-06T12:03:44.902Z,15.43
2019-02-06T12:06:14.286Z,16.50
2019-02-06T12:08:43.568Z,18.47
2019-02-06T12:11:13.503Z,15.90
2019-02-06T12:13:42.636Z,17.50
2019-02-06T12:16:11.880Z,17.00
2019-02-06T12:18:40.990Z,16.43
2019-02-06T12:21:10.573Z,17.87
2019-02-06T12:23:39.628Z,17.27
2019-02-06T12:26:08.730Z,18.77
2019-02-06T12:28:37.946Z,18.57
2019-02-06T12:31:07.072Z,14.13
2019-02-06T12:33:36.726Z,18.43
2019-02-06T12:36:06.105Z,14.50
2019-02-06T12:38:35.100Z,15.10
2019-02-06T12:41:04.193Z,17.57
2019-02-06T12:43:33.320Z,22.10
2019-02-06T12:46:02.568Z,13.83
2019-02-06T12:48:31.649Z,17.83
2019-02-06T12:51:00.796Z,19.27
2019-02-06T12:53:29.905Z,15.83
2019-02-06T12:55:59.337Z,15.20
2019-02-06T12:58:28.447Z,19.40
2019-02-06T13:00:57.603Z,15.63
2019-02-06T13:03:26.709Z,17.67
2019-02-06T13:05:55.780Z,19.40
2019-02-06T13:08:24.808Z,17.10
2019-02-06T13:10:54.101Z,17.27
2019-02-06T13:13:23.267Z,17.97
2019-02-06T13:15:52.317Z,16.77
2019-02-06T13:18:24.203Z,16.20
2019-02-06T13:20:52.283Z,15.47
2019-02-06T13:23:21.396Z,16.70
2019-02-06T13:25:50.515Z,16.80
2019-02-06T13:28:19.549Z,20.77
2019-02-06T13:30:48.579Z,16.27
2019-02-06T13:33:17.579Z,22.30
2019-02-06T13:35:46.695Z,19.47
2019-02-06T13:38:15.945Z,16.87
2019-02-06T13:40:46.031Z,16.40
2019-02-06T13:43:15.385Z,19.63
2019-02-06T13:45:46.317Z,13.37
2019-02-06T13:48:15.466Z,17.73
2019-02-06T13:50:44.542Z,17.57
2019-02-06T13:53:13.707Z,19.90
2019-02-06T13:55:42.700Z,15.17
2019-02-06T13:58:19.738Z,18.73
2019-02-06T14:00:42.636Z,17.60
2019-02-06T14:03:11.698Z,19.73
2019-02-06T14:05:40.830Z,17.80
2019-02-06T14:08:15.547Z,17.97
2019-02-06T14:10:57.047Z,15.67
2019-02-06T14:13:15.803Z,18.80
2019-02-06T14:15:46.657Z,25.33
2019-02-06T14:18:15.668Z,21.27
2019-02-06T14:20:45.902Z,19.70
2019-02-06T14:23:18.018Z,21.23
2019-02-06T14:26:33.779Z,19.03
2019-02-06T14:29:38.452Z,19.23
2019-02-06T14:32:44.783Z,19.23
2019-02-06T14:35:52.388Z,24.03
2019-02-06T14:38:46.620Z,20.77
2019-02-06T14:41:32.090Z,18.30
2019-02-06T14:44:41.513Z,20.20
2019-02-06T14:47:29.591Z,21.20
2019-02-06T14:50:34.486Z,23.67
2019-02-06T14:53:40.127Z,20.97
2019-02-06T14:56:31.180Z,18.13
2019-02-06T14:59:38.103Z,20.57
2019-02-06T15:03:00.757Z,21.23
2019-02-06T15:06:20.764Z,18.43
2019-02-06T15:09:31.199Z,22.27
2019-02-06T15:12:37.821Z,16.93
2019-02-06T15:15:38.876Z,19.97
2019-02-06T15:18:40.361Z,24.17
2019-02-06T15:21:24.744Z,16.63
2019-02-06T15:24:20.411Z,17.97
2019-02-06T15:27:28.500Z,20.67
2019-02-06T15:30:36.110Z,18.57
2019-02-06T15:33:23.470Z,20.53
2019-02-06T15:36:18.008Z,20.07
2019-02-06T15:39:16.444Z,21.00
2019-02-06T15:42:16.650Z,24.00
2019-02-06T15:44:56.070Z,19.57
2019-02-06T15:48:00.772Z,19.70
2019-02-06T15:51:12.644Z,21.10
2019-02-06T15:54:33.124Z,19.40
2019-02-06T15:57:25.620Z,18.10
2019-02-06T16:00:26.172Z,17.37
2019-02-06T16:03:20.127Z,22.27
2019-02-06T16:06:29.895Z,17.17
2019-02-06T16:09:23.043Z,19.57
2019-02-06T16:12:37.801Z,20.90
2019-02-06T16:15:17.347Z,19.07
2019-02-06T16:18:36.355Z,21.43
2019-02-06T16:21:26.675Z,22.73
2019-02-06T16:24:26.641Z,21.10
2019-02-06T16:27:34.155Z,20.53
2019-02-06T16:31:02.926Z,21.70
2019-02-06T16:34:13.012Z,16.73
2019-02-06T16:37:20.403Z,20.33
2019-02-06T16:40:22.152Z,21.23
2019-02-06T16:43:45.818Z,18.67
2019-02-06T16:46:47.963Z,20.50
2019-02-06T16:49:42.992Z,22.37
2019-02-06T16:52:48.852Z,19.23
2019-02-06T16:56:04.179Z,21.60
2019-02-06T16:58:43.965Z,20.43
2019-02-06T17:02:18.790Z,17.43
2019-02-06T17:05:30.758Z,19.93
2019-02-06T17:08:21.532Z,19.30
2019-02-06T17:11:21.085Z,18.53
2019-02-06T17:14:05.664Z,20.70
2019-02-06T17:17:15.202Z,19.03
2019-02-06T17:20:36.314Z,20.67
2019-02-06T17:23:21.831Z,16.27
2019-02-06T17:26:25.042Z,18.47
2019-02-06T17:29:16.656Z,19.23
2019-02-06T17:32:15.751Z,17.57
2019-02-06T17:35:28.429Z,19.43
2019-02-06T17:38:30.597Z,18.73
2019-02-06T17:41:07.576Z,20.17
2019-02-06T17:44:09.404Z,17.37
2019-02-06T17:46:52.889Z,18.70
2019-02-06T17:49:54.027Z,19.93
2019-02-06T17:53:02.766Z,13.73
2019-02-06T17:55:32.566Z,18.27
2019-02-06T17:58:04.046Z,19.43
2019-02-06T18:00:52.753Z,19.53
2019-02-06T18:03:22.049Z,19.10
2019-02-06T18:05:51.580Z,19.03
2019-02-06T18:08:20.733Z,16.60
2019-02-06T18:10:49.918Z,17.17
2019-02-06T18:13:18.999Z,16.77
2019-02-06T18:15:48.093Z,15.77
2019-02-06T18:18:17.277Z,19.83
2019-02-06T18:20:46.831Z,17.73
2019-02-06T18:23:15.975Z,15.83
2019-02-06T18:25:45.204Z,13.87
2019-02-06T18:28:14.474Z,16.57
2019-02-06T18:30:43.666Z,16.60
2019-02-06T18:33:13.887Z,20.70
2019-02-06T18:35:43.097Z,17.80
2019-02-06T18:38:12.261Z,14.80
2019-02-06T18:40:41.521Z,13.00
2019-02-06T18:43:10.709Z,14.33
2019-02-06T18:45:39.932Z,12.97
2019-02-06T18:48:09.784Z,13.13
2019-02-06T18:50:39.627Z,13.23
2019-02-06T18:53:09.141Z,13.67
2019-02-06T18:55:38.601Z,12.97
2019-02-06T18:58:08.607Z,12.37
2019-02-06T19:00:38.564Z,12.67
2019-02-06T19:03:11.954Z,14.83
2019-02-06T19:05:41.160Z,13.07
2019-02-06T19:08:10.374Z,14.57
2019-02-06T19:10:39.479Z,15.57
2019-02-06T19:13:09.104Z,13.03
2019-02-06T19:15:38.163Z,16.10
2019-02-06T19:18:09.372Z,11.67
2019-02-06T19:20:38.598Z,15.27
2019-02-06T19:23:07.642Z,15.23
2019-02-06T19:25:36.770Z,15.37
2019-02-06T19:28:06.125Z,13.97
2019-02-06T19:30:38.647Z,16.00
2019-02-06T19:33:08.547Z,13.97
2019-02-06T19:35:37.761Z,15.23
2019-02-06T19:38:07.055Z,14.13
2019-02-06T19:40:36.561Z,15.23
2019-02-06T19:43:05.724Z,14.63
2019-02-06T19:45:35.065Z,12.33
2019-02-06T19:48:15.302Z,16.30
2019-02-06T19:50:38.739Z,12.20
2019-02-06T19:53:07.916Z,12.70
2019-02-06T19:55:37.321Z,16.80
2019-02-06T19:58:06.799Z,11.27
2019-02-06T20:00:36.188Z,15.20
2019-02-06T20:03:08.120Z,14.73
2019-02-06T20:05:36.878Z,13.40
2019-02-06T20:08:07.961Z,14.00
2019-02-06T20:10:39.779Z,17.00
2019-02-06T20:13:12.318Z,15.87
2019-02-06T20:15:39.718Z,17.80
2019-02-06T20:18:09.254Z,19.27
2019-02-06T20:20:39.792Z,17.07
2019-02-06T20:23:08.980Z,20.10
2019-02-06T20:25:38.185Z,17.43
2019-02-06T20:28:07.314Z,17.10
2019-02-06T20:30:36.481Z,16.77
2019-02-06T20:33:05.719Z,15.67
2019-02-06T20:35:35.350Z,16.03
2019-02-06T20:38:04.500Z,16.67
2019-02-06T20:40:35.354Z,19.27
2019-02-06T20:43:04.871Z,20.60
2019-02-06T20:45:34.062Z,22.53
2019-02-06T20:48:03.213Z,18.67
2019-02-06T20:50:33.368Z,21.03
2019-02-06T20:53:02.901Z,20.23
2019-02-06T20:55:32.161Z,22.47
2019-02-06T20:58:01.311Z,19.30
2019-02-06T21:00:35.714Z,22.77
2019-02-06T21:03:05.301Z,20.37
2019-02-06T21:05:34.423Z,20.07
2019-02-06T21:08:04.039Z,20.97
2019-02-06T21:10:33.265Z,20.20
2019-02-06T21:13:02.425Z,22.13
2019-02-06T21:15:32.939Z,26.07
2019-02-06T21:18:02.341Z,19.97
2019-02-06T21:20:31.479Z,19.90
2019-02-06T21:23:01.089Z,21.47
2019-02-06T21:25:30.284Z,18.93
2019-02-06T21:27:59.500Z,21.33
2019-02-06T21:30:33.695Z,25.13
2019-02-06T21:33:02.714Z,26.00
2019-02-06T21:35:31.749Z,22.67
2019-02-06T21:38:01.561Z,21.20
2019-02-06T21:40:32.882Z,25.73
2019-02-06T21:43:01.968Z,22.23
2019-02-06T21:45:31.092Z,26.20
2019-02-06T21:48:00.202Z,21.97
2019-02-06T21:50:29.304Z,22.13
2019-02-06T21:52:58.830Z,22.97
2019-02-06T21:55:28.102Z,23.83
2019-02-06T21:57:57.106Z,24.47
2019-02-06T22:00:31.445Z,21.27
2019-02-06T22:03:00.542Z,20.90
2019-02-06T22:05:29.699Z,21.60
2019-02-06T22:07:58.840Z,22.83
2019-02-06T22:10:27.947Z,22.20
2019-02-06T22:12:57.268Z,24.97
2019-02-06T22:15:27.465Z,22.53
2019-02-06T22:17:56.524Z,20.90
2019-02-06T22:20:26.109Z,22.43
2019-02-06T22:22:55.229Z,22.33
2019-02-06T22:25:24.337Z,28.63
2019-02-06T22:27:53.377Z,23.97
2019-02-06T22:30:24.255Z,25.37
2019-02-06T22:32:53.339Z,24.30
2019-02-06T22:35:23.192Z,22.17
2019-02-06T22:37:52.255Z,22.00
2019-02-06T22:40:22.718Z,24.50
2019-02-06T22:42:51.835Z,24.57
2019-02-06T22:45:22.975Z,23.73
2019-02-06T22:47:52.084Z,22.90
2019-02-06T22:50:33.395Z,25.27
2019-02-06T22:53:02.469Z,21.37
2019-02-06T22:55:31.481Z,24.33
2019-02-06T22:58:00.543Z,24.70
2019-02-06T23:00:56.771Z,26.83
2019-02-06T23:03:46.918Z,24.63
2019-02-06T23:06:16.082Z,23.77
2019-02-06T23:08:45.301Z,25.37
2019-02-06T23:11:14.510Z,26.93
2019-02-06T23:13:43.571Z,26.63
2019-02-06T23:16:12.646Z,27.23
2019-02-06T23:18:41.742Z,26.27
2019-02-06T23:21:10.771Z,25.70
2019-02-06T23:23:40.164Z,28.73
2019-02-06T23:26:09.234Z,26.77
2019-02-06T23:28:38.496Z,27.17
2019-02-06T23:31:07.548Z,29.73
2019-02-06T23:33:36.678Z,29.47
2019-02-06T23:36:06.227Z,28.17
2019-02-06T23:38:35.304Z,29.33
2019-02-06T23:41:04.447Z,28.80
2019-02-06T23:43:33.549Z,32.60
2019-02-06T23:48:50.473Z,32.93
2019-02-06T23:51:19.421Z,37.00
2019-02-06T23:53:48.514Z,29.10
2019-02-06T23:56:17.683Z,29.53
2019-02-06T23:58:46.675Z,33.50
